Terminal Aerodrome Forecast
Issued by NWS

Current Version | Previous Version | Graphics & Text | Print | Product List | Glossary On
Versions: 1 2 3 4 5 6 7 8 9 10 11 12 13 14 15 16 17 18 19 20
246
FTUS41 KPBZ 212339
TAFMGW
TAF
KMGW 212339Z 2200/2224 20004KT P6SM SCT080 BKN250 PROB30 2218/2222
      4SM TS BKN050CB=

USA.gov is the U.S. government's official web portal to all federal, state and local government web resources and services.